sensor_id;sensor_type;location;lat;lon;timestamp;temperature;humidity
3071;DHT22;1546;47.208;9.038;2023-02-28T00:00:24;0.80;97.30
3071;DHT22;1546;47.208;9.038;2023-02-28T00:02:51;0.80;97.50
3071;DHT22;1546;47.208;9.038;2023-02-28T00:05:20;0.80;97.40
3071;DHT22;1546;47.208;9.038;2023-02-28T00:07:48;0.70;97.50
3071;DHT22;1546;47.208;9.038;2023-02-28T00:10:17;0.70;97.80
3071;DHT22;1546;47.208;9.038;2023-02-28T00:12:46;0.80;97.50
3071;DHT22;1546;47.208;9.038;2023-02-28T00:15:14;0.70;97.40
3071;DHT22;1546;47.208;9.038;2023-02-28T00:17:42;0.70;97.50
3071;DHT22;1546;47.208;9.038;2023-02-28T00:20:10;0.70;97.60
3071;DHT22;1546;47.208;9.038;2023-02-28T00:22:38;0.80;97.30
3071;DHT22;1546;47.208;9.038;2023-02-28T00:25:06;0.90;97.40
3071;DHT22;1546;47.208;9.038;2023-02-28T00:27:34;1.10;97.30
3071;DHT22;1546;47.208;9.038;2023-02-28T00:30:00;1.10;97.00
3071;DHT22;1546;47.208;9.038;2023-02-28T00:32:29;1.20;96.70
3071;DHT22;1546;47.208;9.038;2023-02-28T00:34:56;1.30;96.60
3071;DHT22;1546;47.208;9.038;2023-02-28T00:37:23;1.20;96.60
3071;DHT22;1546;47.208;9.038;2023-02-28T00:39:49;1.20;96.50
3071;DHT22;1546;47.208;9.038;2023-02-28T00:42:17;1.40;96.80
3071;DHT22;1546;47.208;9.038;2023-02-28T00:44:43;1.50;96.70
3071;DHT22;1546;47.208;9.038;2023-02-28T00:47:10;1.50;96.50
3071;DHT22;1546;47.208;9.038;2023-02-28T00:49:39;1.50;96.80
3071;DHT22;1546;47.208;9.038;2023-02-28T00:52:06;1.70;97.10
3071;DHT22;1546;47.208;9.038;2023-02-28T00:54:32;1.70;97.10
3071;DHT22;1546;47.208;9.038;2023-02-28T00:56:59;1.70;97.20
3071;DHT22;1546;47.208;9.038;2023-02-28T00:59:26;1.70;97.40
3071;DHT22;1546;47.208;9.038;2023-02-28T01:01:53;1.80;97.80
3071;DHT22;1546;47.208;9.038;2023-02-28T01:04:20;1.90;97.70
3071;DHT22;1546;47.208;9.038;2023-02-28T01:06:48;2.00;97.20
3071;DHT22;1546;47.208;9.038;2023-02-28T01:09:15;2.10;97.30
3071;DHT22;1546;47.208;9.038;2023-02-28T01:11:42;2.20;97.20
3071;DHT22;1546;47.208;9.038;2023-02-28T01:14:12;2.20;97.10
3071;DHT22;1546;47.208;9.038;2023-02-28T01:16:38;2.20;97.30
3071;DHT22;1546;47.208;9.038;2023-02-28T01:19:05;2.10;97.30
3071;DHT22;1546;47.208;9.038;2023-02-28T01:21:32;2.20;97.20
3071;DHT22;1546;47.208;9.038;2023-02-28T01:24:02;2.20;97.30
3071;DHT22;1546;47.208;9.038;2023-02-28T01:26:29;2.10;96.90
3071;DHT22;1546;47.208;9.038;2023-02-28T01:28:56;2.00;97.00
3071;DHT22;1546;47.208;9.038;2023-02-28T01:31:24;1.90;97.40
3071;DHT22;1546;47.208;9.038;2023-02-28T01:33:51;2.00;97.30
3071;DHT22;1546;47.208;9.038;2023-02-28T01:36:20;1.90;97.30
3071;DHT22;1546;47.208;9.038;2023-02-28T01:38:47;1.90;97.30
3071;DHT22;1546;47.208;9.038;2023-02-28T01:41:17;1.80;97.50
3071;DHT22;1546;47.208;9.038;2023-02-28T01:43:57;1.80;97.50
3071;DHT22;1546;47.208;9.038;2023-02-28T01:46:24;1.80;97.50
3071;DHT22;1546;47.208;9.038;2023-02-28T01:48:54;1.80;97.50
3071;DHT22;1546;47.208;9.038;2023-02-28T01:51:28;1.80;97.60
3071;DHT22;1546;47.208;9.038;2023-02-28T01:54:00;1.90;97.50
3071;DHT22;1546;47.208;9.038;2023-02-28T01:56:33;1.90;97.50
3071;DHT22;1546;47.208;9.038;2023-02-28T01:59:02;1.80;97.40
3071;DHT22;1546;47.208;9.038;2023-02-28T02:01:31;1.80;97.70
3071;DHT22;1546;47.208;9.038;2023-02-28T02:04:01;1.80;97.70
3071;DHT22;1546;47.208;9.038;2023-02-28T02:06:31;1.80;97.70
3071;DHT22;1546;47.208;9.038;2023-02-28T02:08:59;1.90;98.00
3071;DHT22;1546;47.208;9.038;2023-02-28T02:11:26;1.90;98.10
3071;DHT22;1546;47.208;9.038;2023-02-28T02:14:18;1.90;98.00
3071;DHT22;1546;47.208;9.038;2023-02-28T02:17:02;2.10;97.70
3071;DHT22;1546;47.208;9.038;2023-02-28T02:20:09;2.00;97.40
3071;DHT22;1546;47.208;9.038;2023-02-28T02:23:08;2.10;97.30
3071;DHT22;1546;47.208;9.038;2023-02-28T02:25:40;2.10;97.20
3071;DHT22;1546;47.208;9.038;2023-02-28T02:28:40;2.20;97.10
3071;DHT22;1546;47.208;9.038;2023-02-28T02:31:33;2.20;96.60
3071;DHT22;1546;47.208;9.038;2023-02-28T02:34:28;2.20;96.90
3071;DHT22;1546;47.208;9.038;2023-02-28T02:37:04;2.20;96.70
3071;DHT22;1546;47.208;9.038;2023-02-28T02:39:39;2.20;96.50
3071;DHT22;1546;47.208;9.038;2023-02-28T02:42:13;2.10;96.70
3071;DHT22;1546;47.208;9.038;2023-02-28T02:44:45;2.30;96.90
3071;DHT22;1546;47.208;9.038;2023-02-28T02:47:17;2.20;96.90
3071;DHT22;1546;47.208;9.038;2023-02-28T02:49:49;2.20;96.90
3071;DHT22;1546;47.208;9.038;2023-02-28T02:52:22;2.20;96.70
3071;DHT22;1546;47.208;9.038;2023-02-28T02:54:52;2.20;96.90
3071;DHT22;1546;47.208;9.038;2023-02-28T02:57:23;2.20;96.70
3071;DHT22;1546;47.208;9.038;2023-02-28T02:59:51;2.10;96.80
3071;DHT22;1546;47.208;9.038;2023-02-28T03:02:21;2.20;96.80
3071;DHT22;1546;47.208;9.038;2023-02-28T03:04:52;2.20;96.70
3071;DHT22;1546;47.208;9.038;2023-02-28T03:07:20;2.30;96.80
3071;DHT22;1546;47.208;9.038;2023-02-28T03:09:51;2.20;96.80
3071;DHT22;1546;47.208;9.038;2023-02-28T03:12:18;2.30;96.60
3071;DHT22;1546;47.208;9.038;2023-02-28T03:14:54;2.30;96.40
3071;DHT22;1546;47.208;9.038;2023-02-28T03:17:34;2.00;96.50
3071;DHT22;1546;47.208;9.038;2023-02-28T03:20:15;2.10;97.10
3071;DHT22;1546;47.208;9.038;2023-02-28T03:22:50;2.10;96.70
3071;DHT22;1546;47.208;9.038;2023-02-28T03:25:22;2.20;96.30
3071;DHT22;1546;47.208;9.038;2023-02-28T03:28:01;2.00;96.20
3071;DHT22;1546;47.208;9.038;2023-02-28T03:30:36;1.90;96.40
3071;DHT22;1546;47.208;9.038;2023-02-28T03:33:08;1.80;96.90
3071;DHT22;1546;47.208;9.038;2023-02-28T03:35:42;1.90;97.00
3071;DHT22;1546;47.208;9.038;2023-02-28T03:38:13;1.90;97.00
3071;DHT22;1546;47.208;9.038;2023-02-28T03:40:44;1.90;96.80
3071;DHT22;1546;47.208;9.038;2023-02-28T03:43:18;1.90;96.80
3071;DHT22;1546;47.208;9.038;2023-02-28T03:45:48;2.00;96.80
3071;DHT22;1546;47.208;9.038;2023-02-28T03:48:20;2.10;96.70
3071;DHT22;1546;47.208;9.038;2023-02-28T03:50:53;2.10;96.60
3071;DHT22;1546;47.208;9.038;2023-02-28T03:53:25;2.00;96.50
3071;DHT22;1546;47.208;9.038;2023-02-28T03:55:56;2.00;96.80
3071;DHT22;1546;47.208;9.038;2023-02-28T03:58:29;2.00;96.50
3071;DHT22;1546;47.208;9.038;2023-02-28T04:01:00;2.00;96.60
3071;DHT22;1546;47.208;9.038;2023-02-28T04:03:34;2.20;96.60
3071;DHT22;1546;47.208;9.038;2023-02-28T04:06:03;2.30;96.10
3071;DHT22;1546;47.208;9.038;2023-02-28T04:08:30;2.20;95.90
3071;DHT22;1546;47.208;9.038;2023-02-28T04:11:01;2.20;96.20
3071;DHT22;1546;47.208;9.038;2023-02-28T04:13:29;2.10;96.30
3071;DHT22;1546;47.208;9.038;2023-02-28T04:15:56;2.10;95.70
3071;DHT22;1546;47.208;9.038;2023-02-28T04:18:23;1.90;95.90
3071;DHT22;1546;47.208;9.038;2023-02-28T04:20:50;1.80;95.80
3071;DHT22;1546;47.208;9.038;2023-02-28T04:23:18;1.70;95.90
3071;DHT22;1546;47.208;9.038;2023-02-28T04:25:45;1.70;96.30
3071;DHT22;1546;47.208;9.038;2023-02-28T04:28:11;1.70;96.60
3071;DHT22;1546;47.208;9.038;2023-02-28T04:30:38;1.70;96.50
3071;DHT22;1546;47.208;9.038;2023-02-28T04:33:05;1.70;96.80
3071;DHT22;1546;47.208;9.038;2023-02-28T04:35:35;1.80;96.80
3071;DHT22;1546;47.208;9.038;2023-02-28T04:38:02;1.90;96.90
3071;DHT22;1546;47.208;9.038;2023-02-28T04:40:30;1.90;96.40
3071;DHT22;1546;47.208;9.038;2023-02-28T04:42:57;1.70;96.70
3071;DHT22;1546;47.208;9.038;2023-02-28T04:45:24;1.70;96.80
3071;DHT22;1546;47.208;9.038;2023-02-28T04:47:51;1.70;96.60
3071;DHT22;1546;47.208;9.038;2023-02-28T04:50:19;1.60;96.90
3071;DHT22;1546;47.208;9.038;2023-02-28T04:52:45;1.60;96.80
3071;DHT22;1546;47.208;9.038;2023-02-28T04:55:12;1.60;96.90
3071;DHT22;1546;47.208;9.038;2023-02-28T04:57:40;1.60;97.70
3071;DHT22;1546;47.208;9.038;2023-02-28T05:00:09;1.50;97.50
3071;DHT22;1546;47.208;9.038;2023-02-28T05:02:37;1.60;98.10
3071;DHT22;1546;47.208;9.038;2023-02-28T05:05:05;1.70;97.90
3071;DHT22;1546;47.208;9.038;2023-02-28T05:07:32;1.90;98.10
3071;DHT22;1546;47.208;9.038;2023-02-28T05:09:59;2.00;97.80
3071;DHT22;1546;47.208;9.038;2023-02-28T05:12:26;2.00;97.50
3071;DHT22;1546;47.208;9.038;2023-02-28T05:14:54;2.00;97.60
3071;DHT22;1546;47.208;9.038;2023-02-28T05:17:21;2.10;97.70
3071;DHT22;1546;47.208;9.038;2023-02-28T05:19:48;2.00;97.60
3071;DHT22;1546;47.208;9.038;2023-02-28T05:22:15;1.90;97.70
3071;DHT22;1546;47.208;9.038;2023-02-28T05:24:42;1.80;97.60
3071;DHT22;1546;47.208;9.038;2023-02-28T05:27:10;1.80;97.90
3071;DHT22;1546;47.208;9.038;2023-02-28T05:29:37;1.70;98.20
3071;DHT22;1546;47.208;9.038;2023-02-28T05:32:09;1.70;98.20
3071;DHT22;1546;47.208;9.038;2023-02-28T05:34:37;1.70;98.30
3071;DHT22;1546;47.208;9.038;2023-02-28T05:37:04;1.80;98.60
3071;DHT22;1546;47.208;9.038;2023-02-28T05:39:31;1.90;98.30
3071;DHT22;1546;47.208;9.038;2023-02-28T05:41:58;2.00;98.20
3071;DHT22;1546;47.208;9.038;2023-02-28T05:44:25;2.10;97.90
3071;DHT22;1546;47.208;9.038;2023-02-28T05:46:52;2.00;97.80
3071;DHT22;1546;47.208;9.038;2023-02-28T05:49:20;1.90;98.10
3071;DHT22;1546;47.208;9.038;2023-02-28T05:51:47;1.90;98.10
3071;DHT22;1546;47.208;9.038;2023-02-28T05:54:14;1.90;97.90
3071;DHT22;1546;47.208;9.038;2023-02-28T05:56:40;1.80;98.20
3071;DHT22;1546;47.208;9.038;2023-02-28T05:59:09;1.80;98.40
3071;DHT22;1546;47.208;9.038;2023-02-28T06:01:38;2.00;98.40
3071;DHT22;1546;47.208;9.038;2023-02-28T06:04:07;2.00;98.20
3071;DHT22;1546;47.208;9.038;2023-02-28T06:06:36;2.00;97.90
3071;DHT22;1546;47.208;9.038;2023-02-28T06:09:04;2.10;97.80
3071;DHT22;1546;47.208;9.038;2023-02-28T06:11:31;1.90;97.90
3071;DHT22;1546;47.208;9.038;2023-02-28T06:13:59;1.70;97.30
3071;DHT22;1546;47.208;9.038;2023-02-28T06:16:27;1.70;97.70
3071;DHT22;1546;47.208;9.038;2023-02-28T06:18:54;1.60;97.60
3071;DHT22;1546;47.208;9.038;2023-02-28T06:21:23;1.60;97.60
3071;DHT22;1546;47.208;9.038;2023-02-28T06:23:51;1.70;98.00
3071;DHT22;1546;47.208;9.038;2023-02-28T06:26:18;1.70;97.60
3071;DHT22;1546;47.208;9.038;2023-02-28T06:28:45;1.80;97.80
3071;DHT22;1546;47.208;9.038;2023-02-28T06:31:15;1.80;97.50
3071;DHT22;1546;47.208;9.038;2023-02-28T06:33:43;1.70;96.80
3071;DHT22;1546;47.208;9.038;2023-02-28T06:36:12;1.70;96.60
3071;DHT22;1546;47.208;9.038;2023-02-28T06:38:39;1.60;96.90
3071;DHT22;1546;47.208;9.038;2023-02-28T06:41:08;1.70;96.10
3071;DHT22;1546;47.208;9.038;2023-02-28T06:43:37;1.60;95.90
3071;DHT22;1546;47.208;9.038;2023-02-28T06:46:07;1.60;96.50
3071;DHT22;1546;47.208;9.038;2023-02-28T06:48:35;1.60;96.60
3071;DHT22;1546;47.208;9.038;2023-02-28T06:51:04;1.50;95.50
3071;DHT22;1546;47.208;9.038;2023-02-28T06:53:31;1.50;95.90
3071;DHT22;1546;47.208;9.038;2023-02-28T06:55:58;1.60;96.00
3071;DHT22;1546;47.208;9.038;2023-02-28T06:58:26;1.50;96.10
3071;DHT22;1546;47.208;9.038;2023-02-28T07:00:53;1.60;96.20
3071;DHT22;1546;47.208;9.038;2023-02-28T07:03:20;1.60;96.30
3071;DHT22;1546;47.208;9.038;2023-02-28T07:05:47;1.60;95.90
3071;DHT22;1546;47.208;9.038;2023-02-28T07:08:14;1.70;96.60
3071;DHT22;1546;47.208;9.038;2023-02-28T07:10:41;1.60;96.70
3071;DHT22;1546;47.208;9.038;2023-02-28T07:13:08;1.80;97.30
3071;DHT22;1546;47.208;9.038;2023-02-28T07:15:37;2.00;97.30
3071;DHT22;1546;47.208;9.038;2023-02-28T07:18:04;2.20;96.90
3071;DHT22;1546;47.208;9.038;2023-02-28T07:20:31;2.30;96.30
3071;DHT22;1546;47.208;9.038;2023-02-28T07:22:58;2.40;95.60
3071;DHT22;1546;47.208;9.038;2023-02-28T07:25:26;2.40;95.30
3071;DHT22;1546;47.208;9.038;2023-02-28T07:27:53;2.30;95.20
3071;DHT22;1546;47.208;9.038;2023-02-28T07:30:20;2.10;95.30
3071;DHT22;1546;47.208;9.038;2023-02-28T07:32:49;2.00;95.50
3071;DHT22;1546;47.208;9.038;2023-02-28T07:35:16;2.10;95.40
3071;DHT22;1546;47.208;9.038;2023-02-28T07:37:42;2.00;95.70
3071;DHT22;1546;47.208;9.038;2023-02-28T07:40:11;1.90;95.20
3071;DHT22;1546;47.208;9.038;2023-02-28T07:42:39;2.00;96.00
3071;DHT22;1546;47.208;9.038;2023-02-28T07:45:07;2.00;96.10
3071;DHT22;1546;47.208;9.038;2023-02-28T07:47:37;2.10;96.50
3071;DHT22;1546;47.208;9.038;2023-02-28T07:50:06;2.00;96.30
3071;DHT22;1546;47.208;9.038;2023-02-28T07:52:33;2.10;96.50
3071;DHT22;1546;47.208;9.038;2023-02-28T07:55:00;2.20;96.50
3071;DHT22;1546;47.208;9.038;2023-02-28T07:57:27;2.40;96.00
3071;DHT22;1546;47.208;9.038;2023-02-28T07:59:54;2.60;96.10
3071;DHT22;1546;47.208;9.038;2023-02-28T08:02:21;2.60;94.80
3071;DHT22;1546;47.208;9.038;2023-02-28T08:04:48;2.60;94.20
3071;DHT22;1546;47.208;9.038;2023-02-28T08:07:17;2.50;94.20
3071;DHT22;1546;47.208;9.038;2023-02-28T08:09:45;2.30;94.70
3071;DHT22;1546;47.208;9.038;2023-02-28T08:12:12;2.40;94.60
3071;DHT22;1546;47.208;9.038;2023-02-28T08:14:39;2.40;94.60
3071;DHT22;1546;47.208;9.038;2023-02-28T08:17:06;2.30;93.90
3071;DHT22;1546;47.208;9.038;2023-02-28T08:19:33;2.40;94.00
3071;DHT22;1546;47.208;9.038;2023-02-28T08:22:00;2.60;94.20
3071;DHT22;1546;47.208;9.038;2023-02-28T08:24:28;2.60;94.20
3071;DHT22;1546;47.208;9.038;2023-02-28T08:26:55;2.70;93.90
3071;DHT22;1546;47.208;9.038;2023-02-28T08:29:22;2.60;93.60
3071;DHT22;1546;47.208;9.038;2023-02-28T08:31:49;2.60;93.90
3071;DHT22;1546;47.208;9.038;2023-02-28T08:34:16;2.60;93.50
3071;DHT22;1546;47.208;9.038;2023-02-28T08:36:44;2.60;93.70
3071;DHT22;1546;47.208;9.038;2023-02-28T08:39:11;2.80;93.80
3071;DHT22;1546;47.208;9.038;2023-02-28T08:41:41;2.60;93.20
3071;DHT22;1546;47.208;9.038;2023-02-28T08:44:09;2.50;93.60
3071;DHT22;1546;47.208;9.038;2023-02-28T08:46:36;2.40;93.50
3071;DHT22;1546;47.208;9.038;2023-02-28T08:49:03;2.40;93.80
3071;DHT22;1546;47.208;9.038;2023-02-28T08:51:30;2.60;94.00
3071;DHT22;1546;47.208;9.038;2023-02-28T08:53:59;2.90;94.20
3071;DHT22;1546;47.208;9.038;2023-02-28T08:56:27;3.20;94.00
3071;DHT22;1546;47.208;9.038;2023-02-28T08:58:58;3.30;92.80
3071;DHT22;1546;47.208;9.038;2023-02-28T09:01:26;3.00;92.80
3071;DHT22;1546;47.208;9.038;2023-02-28T09:03:54;3.00;93.30
3071;DHT22;1546;47.208;9.038;2023-02-28T09:06:23;3.20;93.30
3071;DHT22;1546;47.208;9.038;2023-02-28T09:08:50;3.30;92.50
3071;DHT22;1546;47.208;9.038;2023-02-28T09:11:17;3.10;92.50
3071;DHT22;1546;47.208;9.038;2023-02-28T09:13:45;3.10;92.70
3071;DHT22;1546;47.208;9.038;2023-02-28T09:16:15;3.10;92.90
3071;DHT22;1546;47.208;9.038;2023-02-28T09:18:43;3.20;93.00
3071;DHT22;1546;47.208;9.038;2023-02-28T09:21:12;3.40;92.90
3071;DHT22;1546;47.208;9.038;2023-02-28T09:23:40;3.70;92.80
3071;DHT22;1546;47.208;9.038;2023-02-28T09:26:07;3.70;92.00
3071;DHT22;1546;47.208;9.038;2023-02-28T09:28:35;3.50;91.90
3071;DHT22;1546;47.208;9.038;2023-02-28T09:31:01;3.30;92.20
3071;DHT22;1546;47.208;9.038;2023-02-28T09:33:31;3.20;92.30
3071;DHT22;1546;47.208;9.038;2023-02-28T09:36:02;3.10;92.40
3071;DHT22;1546;47.208;9.038;2023-02-28T09:38:29;3.10;92.80
3071;DHT22;1546;47.208;9.038;2023-02-28T09:40:57;3.30;92.50
3071;DHT22;1546;47.208;9.038;2023-02-28T09:43:28;3.30;92.20
3071;DHT22;1546;47.208;9.038;2023-02-28T09:46:00;3.30;92.20
3071;DHT22;1546;47.208;9.038;2023-02-28T09:48:33;3.30;92.20
3071;DHT22;1546;47.208;9.038;2023-02-28T09:51:04;3.50;93.10
3071;DHT22;1546;47.208;9.038;2023-02-28T09:53:33;3.70;92.30
3071;DHT22;1546;47.208;9.038;2023-02-28T09:56:04;3.80;91.90
3071;DHT22;1546;47.208;9.038;2023-02-28T09:58:36;3.80;91.90
3071;DHT22;1546;47.208;9.038;2023-02-28T10:01:10;3.80;91.70
3071;DHT22;1546;47.208;9.038;2023-02-28T10:03:43;3.90;91.80
3071;DHT22;1546;47.208;9.038;2023-02-28T10:06:17;4.00;91.60
3071;DHT22;1546;47.208;9.038;2023-02-28T10:08:50;4.20;92.00
3071;DHT22;1546;47.208;9.038;2023-02-28T10:11:19;4.40;91.60
3071;DHT22;1546;47.208;9.038;2023-02-28T10:13:52;4.60;91.10
3071;DHT22;1546;47.208;9.038;2023-02-28T10:16:27;4.50;91.20
3071;DHT22;1546;47.208;9.038;2023-02-28T10:19:02;4.60;90.90
3071;DHT22;1546;47.208;9.038;2023-02-28T10:21:34;4.50;90.80
3071;DHT22;1546;47.208;9.038;2023-02-28T10:24:05;4.30;90.60
3071;DHT22;1546;47.208;9.038;2023-02-28T10:26:37;4.10;91.10
3071;DHT22;1546;47.208;9.038;2023-02-28T10:29:07;4.20;90.90
3071;DHT22;1546;47.208;9.038;2023-02-28T10:31:35;4.40;91.30
3071;DHT22;1546;47.208;9.038;2023-02-28T10:34:03;4.60;91.00
3071;DHT22;1546;47.208;9.038;2023-02-28T10:36:32;4.70;91.10
3071;DHT22;1546;47.208;9.038;2023-02-28T10:38:58;4.80;91.10
3071;DHT22;1546;47.208;9.038;2023-02-28T10:41:28;4.80;90.70
3071;DHT22;1546;47.208;9.038;2023-02-28T10:44:14;4.80;90.40
3071;DHT22;1546;47.208;9.038;2023-02-28T10:46:42;4.90;91.00
3071;DHT22;1546;47.208;9.038;2023-02-28T10:49:15;5.20;90.50
3071;DHT22;1546;47.208;9.038;2023-02-28T10:58:50;4.80;91.60
3071;DHT22;1546;47.208;9.038;2023-02-28T11:01:20;4.90;90.80
3071;DHT22;1546;47.208;9.038;2023-02-28T11:03:47;4.40;91.20
3071;DHT22;1546;47.208;9.038;2023-02-28T11:06:18;4.00;91.80
3071;DHT22;1546;47.208;9.038;2023-02-28T11:08:49;4.10;92.50
3071;DHT22;1546;47.208;9.038;2023-02-28T11:11:16;4.60;92.70
3071;DHT22;1546;47.208;9.038;2023-02-28T11:13:45;5.00;92.20
3071;DHT22;1546;47.208;9.038;2023-02-28T11:16:14;5.20;90.60
3071;DHT22;1546;47.208;9.038;2023-02-28T11:18:44;4.90;90.40
3071;DHT22;1546;47.208;9.038;2023-02-28T11:21:22;4.80;90.90
3071;DHT22;1546;47.208;9.038;2023-02-28T11:24:00;5.00;91.60
3071;DHT22;1546;47.208;9.038;2023-02-28T11:26:41;5.10;90.90
3071;DHT22;1546;47.208;9.038;2023-02-28T11:29:18;4.50;91.50
3071;DHT22;1546;47.208;9.038;2023-02-28T11:32:05;4.50;91.70
3071;DHT22;1546;47.208;9.038;2023-02-28T11:34:35;4.70;92.10
3071;DHT22;1546;47.208;9.038;2023-02-28T11:37:08;4.90;91.10
3071;DHT22;1546;47.208;9.038;2023-02-28T11:39:37;5.10;91.00
3071;DHT22;1546;47.208;9.038;2023-02-28T11:42:24;5.30;90.70
3071;DHT22;1546;47.208;9.038;2023-02-28T11:45:03;5.20;90.90
3071;DHT22;1546;47.208;9.038;2023-02-28T11:47:38;5.00;90.90
3071;DHT22;1546;47.208;9.038;2023-02-28T11:54:07;4.60;91.40
3071;DHT22;1546;47.208;9.038;2023-02-28T12:04:09;5.90;90.90
3071;DHT22;1546;47.208;9.038;2023-02-28T12:06:43;6.30;90.40
3071;DHT22;1546;47.208;9.038;2023-02-28T12:16:59;7.10;88.10
3071;DHT22;1546;47.208;9.038;2023-02-28T12:26:50;7.00;85.90
3071;DHT22;1546;47.208;9.038;2023-02-28T12:29:21;6.70;86.20
3071;DHT22;1546;47.208;9.038;2023-02-28T12:31:51;6.30;87.30
3071;DHT22;1546;47.208;9.038;2023-02-28T12:41:45;5.80;88.10
3071;DHT22;1546;47.208;9.038;2023-02-28T12:44:17;5.60;90.00
3071;DHT22;1546;47.208;9.038;2023-02-28T12:46:48;5.40;90.50
3071;DHT22;1546;47.208;9.038;2023-02-28T12:49:19;5.40;90.80
3071;DHT22;1546;47.208;9.038;2023-02-28T12:51:49;5.40;90.80
3071;DHT22;1546;47.208;9.038;2023-02-28T12:54:22;5.30;90.70
3071;DHT22;1546;47.208;9.038;2023-02-28T12:56:58;5.10;90.70
3071;DHT22;1546;47.208;9.038;2023-02-28T12:59:35;5.20;90.80
3071;DHT22;1546;47.208;9.038;2023-02-28T13:02:26;5.20;91.30
3071;DHT22;1546;47.208;9.038;2023-02-28T13:05:19;5.20;90.30
3071;DHT22;1546;47.208;9.038;2023-02-28T13:08:16;5.00;90.60
3071;DHT22;1546;47.208;9.038;2023-02-28T13:10:49;5.10;90.50
3071;DHT22;1546;47.208;9.038;2023-02-28T13:13:33;5.00;90.60
3071;DHT22;1546;47.208;9.038;2023-02-28T13:16:04;4.80;90.70
3071;DHT22;1546;47.208;9.038;2023-02-28T13:18:35;4.70;91.30
3071;DHT22;1546;47.208;9.038;2023-02-28T13:21:06;4.90;91.00
3071;DHT22;1546;47.208;9.038;2023-02-28T13:23:40;5.10;91.60
3071;DHT22;1546;47.208;9.038;2023-02-28T13:26:22;5.30;90.60
3071;DHT22;1546;47.208;9.038;2023-02-28T13:29:27;5.10;91.10
3071;DHT22;1546;47.208;9.038;2023-02-28T13:32:27;5.10;90.80
3071;DHT22;1546;47.208;9.038;2023-02-28T13:38:23;5.30;90.80
3071;DHT22;1546;47.208;9.038;2023-02-28T13:40:50;5.20;90.70
3071;DHT22;1546;47.208;9.038;2023-02-28T13:43:18;5.10;90.60
3071;DHT22;1546;47.208;9.038;2023-02-28T13:46:10;5.30;90.90
3071;DHT22;1546;47.208;9.038;2023-02-28T13:48:38;5.30;91.00
3071;DHT22;1546;47.208;9.038;2023-02-28T13:51:28;5.60;91.30
3071;DHT22;1546;47.208;9.038;2023-02-28T13:54:11;5.80;90.30
3071;DHT22;1546;47.208;9.038;2023-02-28T13:56:46;5.40;90.20
3071;DHT22;1546;47.208;9.038;2023-02-28T13:59:23;5.30;90.40
3071;DHT22;1546;47.208;9.038;2023-02-28T14:04:53;5.00;90.80
3071;DHT22;1546;47.208;9.038;2023-02-28T14:07:28;4.80;90.90
3071;DHT22;1546;47.208;9.038;2023-02-28T14:10:01;4.70;91.40
3071;DHT22;1546;47.208;9.038;2023-02-28T14:12:57;4.70;91.40
3071;DHT22;1546;47.208;9.038;2023-02-28T14:15:49;4.60;91.40
3071;DHT22;1546;47.208;9.038;2023-02-28T14:18:22;4.60;91.90
3071;DHT22;1546;47.208;9.038;2023-02-28T14:20:54;4.50;91.60
3071;DHT22;1546;47.208;9.038;2023-02-28T14:23:41;4.60;92.10
3071;DHT22;1546;47.208;9.038;2023-02-28T14:26:18;4.70;91.50
3071;DHT22;1546;47.208;9.038;2023-02-28T14:28:56;4.80;91.80
3071;DHT22;1546;47.208;9.038;2023-02-28T14:31:35;5.00;91.60
3071;DHT22;1546;47.208;9.038;2023-02-28T14:34:25;4.90;91.60
3071;DHT22;1546;47.208;9.038;2023-02-28T14:36:58;5.00;91.40
3071;DHT22;1546;47.208;9.038;2023-02-28T14:39:28;5.00;91.20
3071;DHT22;1546;47.208;9.038;2023-02-28T14:41:57;4.80;91.20
3071;DHT22;1546;47.208;9.038;2023-02-28T14:44:29;4.40;91.50
3071;DHT22;1546;47.208;9.038;2023-02-28T14:46:57;4.20;91.70
3071;DHT22;1546;47.208;9.038;2023-02-28T14:49:27;4.00;91.90
3071;DHT22;1546;47.208;9.038;2023-02-28T14:52:06;3.90;92.20
3071;DHT22;1546;47.208;9.038;2023-02-28T14:54:35;3.90;92.70
3071;DHT22;1546;47.208;9.038;2023-02-28T14:57:02;4.10;92.90
3071;DHT22;1546;47.208;9.038;2023-02-28T14:59:31;4.10;92.20
3071;DHT22;1546;47.208;9.038;2023-02-28T15:02:23;3.90;92.30
3071;DHT22;1546;47.208;9.038;2023-02-28T15:04:57;3.70;92.60
3071;DHT22;1546;47.208;9.038;2023-02-28T15:07:24;3.50;92.60
3071;DHT22;1546;47.208;9.038;2023-02-28T15:10:15;3.50;93.30
3071;DHT22;1546;47.208;9.038;2023-02-28T15:12:49;3.60;93.10
3071;DHT22;1546;47.208;9.038;2023-02-28T15:15:18;3.40;92.80
3071;DHT22;1546;47.208;9.038;2023-02-28T15:17:49;3.30;93.20
3071;DHT22;1546;47.208;9.038;2023-02-28T15:20:18;3.40;93.40
3071;DHT22;1546;47.208;9.038;2023-02-28T15:22:47;3.30;93.20
3071;DHT22;1546;47.208;9.038;2023-02-28T15:25:19;3.20;93.30
3071;DHT22;1546;47.208;9.038;2023-02-28T15:27:49;3.00;93.40
3071;DHT22;1546;47.208;9.038;2023-02-28T15:30:18;2.90;93.70
3071;DHT22;1546;47.208;9.038;2023-02-28T15:33:02;2.90;93.90
3071;DHT22;1546;47.208;9.038;2023-02-28T15:35:32;3.00;93.90
3071;DHT22;1546;47.208;9.038;2023-02-28T15:38:02;3.00;93.70
3071;DHT22;1546;47.208;9.038;2023-02-28T15:40:35;2.90;93.60
3071;DHT22;1546;47.208;9.038;2023-02-28T15:43:06;3.00;94.00
3071;DHT22;1546;47.208;9.038;2023-02-28T15:45:37;3.00;93.90
3071;DHT22;1546;47.208;9.038;2023-02-28T15:48:14;3.00;93.80
3071;DHT22;1546;47.208;9.038;2023-02-28T15:50:44;2.90;94.00
3071;DHT22;1546;47.208;9.038;2023-02-28T15:53:16;2.90;93.80
3071;DHT22;1546;47.208;9.038;2023-02-28T15:55:44;2.80;94.00
3071;DHT22;1546;47.208;9.038;2023-02-28T15:58:12;2.70;94.00
3071;DHT22;1546;47.208;9.038;2023-02-28T16:00:43;2.60;94.20
3071;DHT22;1546;47.208;9.038;2023-02-28T16:03:25;2.60;94.40
3071;DHT22;1546;47.208;9.038;2023-02-28T16:06:39;2.60;94.20
3071;DHT22;1546;47.208;9.038;2023-02-28T16:09:11;2.70;94.30
3071;DHT22;1546;47.208;9.038;2023-02-28T16:11:42;2.60;94.30
3071;DHT22;1546;47.208;9.038;2023-02-28T16:14:17;2.50;94.40
3071;DHT22;1546;47.208;9.038;2023-02-28T16:16:47;2.50;94.30
3071;DHT22;1546;47.208;9.038;2023-02-28T16:19:15;2.40;94.50
3071;DHT22;1546;47.208;9.038;2023-02-28T16:21:44;2.40;94.80
3071;DHT22;1546;47.208;9.038;2023-02-28T16:24:11;2.40;94.50
3071;DHT22;1546;47.208;9.038;2023-02-28T16:26:40;2.40;94.60
3071;DHT22;1546;47.208;9.038;2023-02-28T16:29:09;2.30;94.40
3071;DHT22;1546;47.208;9.038;2023-02-28T16:31:39;2.30;94.60
3071;DHT22;1546;47.208;9.038;2023-02-28T16:34:06;2.30;94.70
3071;DHT22;1546;47.208;9.038;2023-02-28T16:36:33;2.30;94.60
3071;DHT22;1546;47.208;9.038;2023-02-28T16:39:01;2.30;94.50
3071;DHT22;1546;47.208;9.038;2023-02-28T16:41:28;2.30;94.80
3071;DHT22;1546;47.208;9.038;2023-02-28T16:43:58;2.30;94.60
3071;DHT22;1546;47.208;9.038;2023-02-28T16:46:29;2.30;94.60
3071;DHT22;1546;47.208;9.038;2023-02-28T16:48:56;2.30;94.70
3071;DHT22;1546;47.208;9.038;2023-02-28T16:51:23;2.30;95.00
3071;DHT22;1546;47.208;9.038;2023-02-28T16:53:50;2.20;94.70
3071;DHT22;1546;47.208;9.038;2023-02-28T16:56:21;2.20;94.90
3071;DHT22;1546;47.208;9.038;2023-02-28T16:58:49;2.20;95.00
3071;DHT22;1546;47.208;9.038;2023-02-28T17:01:17;2.20;95.00
3071;DHT22;1546;47.208;9.038;2023-02-28T17:03:47;2.20;95.10
3071;DHT22;1546;47.208;9.038;2023-02-28T17:06:19;2.20;95.20
3071;DHT22;1546;47.208;9.038;2023-02-28T17:08:47;2.20;95.20
3071;DHT22;1546;47.208;9.038;2023-02-28T17:11:15;2.20;95.30
3071;DHT22;1546;47.208;9.038;2023-02-28T17:13:43;2.20;95.40
3071;DHT22;1546;47.208;9.038;2023-02-28T17:16:19;2.20;95.40
3071;DHT22;1546;47.208;9.038;2023-02-28T17:18:46;2.30;95.40
3071;DHT22;1546;47.208;9.038;2023-02-28T17:21:14;2.30;95.20
3071;DHT22;1546;47.208;9.038;2023-02-28T17:23:41;2.30;95.40
3071;DHT22;1546;47.208;9.038;2023-02-28T17:26:12;2.30;95.20
3071;DHT22;1546;47.208;9.038;2023-02-28T17:28:40;2.30;95.40